createdAt,value
2022-08-03T00:02:20.815Z,19.59
2022-08-03T00:04:54.504Z,19.57
2022-08-03T00:07:52.290Z,19.51
2022-08-03T00:12:43.523Z,19.45
2022-08-03T00:14:31.180Z,19.33
2022-08-03T00:17:16.043Z,19.28
2022-08-03T00:23:29.357Z,19.23
2022-08-03T00:26:48.413Z,19.22
2022-08-03T00:30:35.547Z,19.20
2022-08-03T00:33:58.141Z,19.18
2022-08-03T00:36:31.582Z,19.11
2022-08-03T00:39:26.724Z,19.07
2022-08-03T00:43:28.516Z,19.04
2022-08-03T00:46:20.546Z,19.00
2022-08-03T00:49:53.165Z,18.95
2022-08-03T00:52:39.266Z,18.92
2022-08-03T00:55:20.149Z,18.90
2022-08-03T00:57:57.557Z,18.89
2022-08-03T01:04:11.294Z,18.84
2022-08-03T01:07:17.068Z,18.85
2022-08-03T01:10:02.882Z,18.86
2022-08-03T01:12:42.172Z,18.86
2022-08-03T01:15:49.299Z,18.88
2022-08-03T01:18:56.670Z,18.91
2022-08-03T01:21:46.383Z,18.93
2022-08-03T01:24:52.884Z,18.95
2022-08-03T01:28:18.394Z,18.97
2022-08-03T01:31:32.044Z,18.97
2022-08-03T01:34:16.006Z,18.97
2022-08-03T01:37:05.085Z,18.97
2022-08-03T01:39:57.016Z,18.97
2022-08-03T01:42:49.564Z,18.98
2022-08-03T01:45:33.970Z,19.00
2022-08-03T01:48:27.395Z,19.00
2022-08-03T01:51:05.015Z,19.00
2022-08-03T01:53:45.710Z,19.01
2022-08-03T01:56:19.333Z,19.02
2022-08-03T01:58:49.740Z,19.01
2022-08-03T02:01:22.665Z,19.00
2022-08-03T02:03:59.714Z,18.97
2022-08-03T02:07:02.002Z,18.92
2022-08-03T02:09:55.363Z,18.87
2022-08-03T02:12:51.126Z,18.85
2022-08-03T02:16:02.089Z,18.77
2022-08-03T02:18:44.235Z,18.69
2022-08-03T02:21:21.000Z,18.63
2022-08-03T02:24:02.317Z,18.59
2022-08-03T02:26:37.344Z,18.57
2022-08-03T02:29:39.909Z,18.52
2022-08-03T02:32:41.187Z,18.42
2022-08-03T02:35:15.069Z,18.38
2022-08-03T02:37:51.743Z,18.36
2022-08-03T02:40:26.800Z,18.34
2022-08-03T02:43:09.960Z,18.28
2022-08-03T02:46:00.772Z,18.25
2022-08-03T02:49:53.368Z,18.22
2022-08-03T02:52:32.458Z,18.16
2022-08-03T02:55:26.350Z,18.11
2022-08-03T02:58:18.255Z,18.09
2022-08-03T03:01:29.981Z,18.06
2022-08-03T03:04:41.218Z,18.03
2022-08-03T03:08:26.021Z,17.99
2022-08-03T03:12:06.606Z,17.96
2022-08-03T03:23:05.806Z,17.96
2022-08-03T03:26:19.297Z,17.96
2022-08-03T03:29:10.245Z,17.96
2022-08-03T03:32:47.201Z,17.92
2022-08-03T03:40:30.333Z,17.85
2022-08-03T03:44:07.001Z,17.85
2022-08-03T03:51:41.780Z,17.64
2022-08-03T03:55:28.598Z,17.71
2022-08-03T03:59:29.365Z,17.83
2022-08-03T04:02:01.685Z,17.88
2022-08-03T04:06:08.494Z,17.95
2022-08-03T04:10:58.196Z,18.39
2022-08-03T04:12:39.905Z,18.89
2022-08-03T04:15:51.492Z,19.31
2022-08-03T04:18:56.097Z,19.95
2022-08-03T04:22:34.048Z,20.86
2022-08-03T04:25:22.419Z,21.52
2022-08-03T04:28:30.617Z,21.95
2022-08-03T04:31:25.657Z,22.44
2022-08-03T04:34:06.964Z,22.90
2022-08-03T04:37:04.796Z,23.30
2022-08-03T04:39:48.979Z,23.61
2022-08-03T04:45:18.807Z,24.12
2022-08-03T04:48:02.933Z,24.05
2022-08-03T04:51:20.898Z,24.10
2022-08-03T04:54:13.210Z,24.10
2022-08-03T04:56:41.290Z,24.17
2022-08-03T04:59:10.480Z,24.38
2022-08-03T05:01:40.449Z,24.79
2022-08-03T05:04:07.936Z,25.20
2022-08-03T05:06:39.794Z,25.33
2022-08-03T05:10:01.357Z,25.26
2022-08-03T05:14:47.715Z,25.09
2022-08-03T05:16:15.481Z,24.92
2022-08-03T05:18:57.677Z,25.12
2022-08-03T05:21:24.798Z,25.43
2022-08-03T05:25:49.622Z,25.63
2022-08-03T05:28:53.504Z,25.43
2022-08-03T05:31:22.814Z,25.63
2022-08-03T05:33:54.077Z,26.01
2022-08-03T05:37:09.465Z,26.05
2022-08-03T05:39:37.490Z,25.92
2022-08-03T05:42:07.459Z,26.22
2022-08-03T05:44:39.644Z,26.52
2022-08-03T05:47:06.732Z,26.49
2022-08-03T05:49:38.855Z,26.62
2022-08-03T05:52:27.496Z,26.99
2022-08-03T05:54:57.821Z,27.13
2022-08-03T05:57:25.798Z,27.17
2022-08-03T05:59:55.733Z,27.28
2022-08-03T06:02:27.264Z,27.38
2022-08-03T06:04:54.184Z,27.48
2022-08-03T06:07:20.975Z,27.64
2022-08-03T06:10:33.201Z,27.91
2022-08-03T06:12:35.946Z,27.92
2022-08-03T06:15:04.318Z,27.80
2022-08-03T06:17:37.753Z,27.62
2022-08-03T06:20:05.866Z,27.43
2022-08-03T06:22:33.015Z,27.14
2022-08-03T06:25:03.479Z,27.01
2022-08-03T06:30:27.388Z,26.62
2022-08-03T06:32:54.311Z,26.43
2022-08-03T06:35:21.167Z,26.28
2022-08-03T06:37:50.067Z,26.14
2022-08-03T06:40:21.626Z,26.00
2022-08-03T06:42:51.824Z,25.84
2022-08-03T06:45:18.504Z,25.70
2022-08-03T06:47:45.387Z,25.60
2022-08-03T06:50:17.037Z,25.53
2022-08-03T06:52:44.734Z,25.47
2022-08-03T06:55:11.543Z,25.42
2022-08-03T06:57:38.444Z,25.38
2022-08-03T07:00:11.857Z,25.35
2022-08-03T07:02:47.145Z,25.27
2022-08-03T07:05:14.799Z,25.24
2022-08-03T07:07:41.840Z,25.30
2022-08-03T07:10:11.025Z,25.30
2022-08-03T07:13:00.371Z,25.27
2022-08-03T07:15:38.348Z,25.28
2022-08-03T07:18:34.131Z,25.34
2022-08-03T07:21:07.829Z,25.35
2022-08-03T07:23:38.938Z,25.33
2022-08-03T07:26:05.829Z,25.38
2022-08-03T07:28:32.899Z,25.52
2022-08-03T07:30:59.807Z,25.68
2022-08-03T07:33:26.547Z,25.76
2022-08-03T07:35:53.372Z,25.75
2022-08-03T07:38:21.207Z,25.73
2022-08-03T07:40:48.430Z,25.81
2022-08-03T07:43:15.325Z,25.94
2022-08-03T07:45:42.203Z,26.03
2022-08-03T07:48:12.425Z,26.18
2022-08-03T07:50:40.359Z,26.33
2022-08-03T07:53:07.431Z,26.42
2022-08-03T07:55:34.649Z,26.49
2022-08-03T07:58:03.607Z,26.57
2022-08-03T08:00:31.055Z,26.68
2022-08-03T08:02:57.954Z,26.84
2022-08-03T08:05:33.394Z,26.90
2022-08-03T08:08:05.472Z,26.88
2022-08-03T08:10:35.736Z,26.89
2022-08-03T08:13:03.310Z,26.95
2022-08-03T08:15:33.428Z,27.05
2022-08-03T08:18:06.249Z,27.20
2022-08-03T08:20:38.409Z,27.37
2022-08-03T08:23:37.752Z,27.51
2022-08-03T08:26:10.673Z,27.58
2022-08-03T08:28:40.342Z,27.67
2022-08-03T08:31:10.351Z,27.71
2022-08-03T08:34:02.663Z,27.75
2022-08-03T08:36:24.248Z,27.80
2022-08-03T08:38:54.802Z,27.86
2022-08-03T08:41:25.722Z,27.93
2022-08-03T08:44:06.640Z,27.98
2022-08-03T08:46:39.166Z,28.06
2022-08-03T08:49:11.554Z,28.08
2022-08-03T08:51:59.486Z,28.11
2022-08-03T08:54:45.525Z,28.20
2022-08-03T08:57:41.780Z,28.28
2022-08-03T09:00:20.032Z,28.34
2022-08-03T09:03:11.908Z,28.42
2022-08-03T09:05:55.425Z,28.48
2022-08-03T09:08:24.159Z,28.54
2022-08-03T09:10:55.518Z,28.61
2022-08-03T09:13:36.323Z,28.64
2022-08-03T09:16:24.522Z,28.71
2022-08-03T09:18:53.879Z,28.69
2022-08-03T09:21:34.482Z,28.66
2022-08-03T09:24:16.400Z,28.70
2022-08-03T09:26:54.202Z,28.77
2022-08-03T09:29:24.983Z,28.84
2022-08-03T09:32:04.296Z,28.91
2022-08-03T09:34:31.221Z,28.93
2022-08-03T09:37:00.534Z,28.94
2022-08-03T09:39:41.996Z,28.96
2022-08-03T09:42:29.724Z,29.00
2022-08-03T09:44:59.943Z,29.03
2022-08-03T09:47:32.032Z,29.04
2022-08-03T09:50:04.242Z,28.99
2022-08-03T09:52:50.256Z,29.00
2022-08-03T09:56:32.995Z,29.09
2022-08-03T09:59:14.478Z,29.11
2022-08-03T10:01:43.546Z,29.13
2022-08-03T10:04:16.533Z,29.21
2022-08-03T10:07:28.735Z,29.17
2022-08-03T10:10:52.363Z,29.23
2022-08-03T10:16:21.917Z,29.49
2022-08-03T10:18:57.683Z,29.57
2022-08-03T10:21:38.154Z,29.62
2022-08-03T10:24:34.744Z,29.69
2022-08-03T10:28:11.371Z,29.76
2022-08-03T10:30:47.943Z,29.74
2022-08-03T10:33:50.335Z,29.79
2022-08-03T10:36:40.482Z,29.89
2022-08-03T10:42:33.119Z,29.96
2022-08-03T10:45:09.518Z,29.87
2022-08-03T10:47:40.559Z,29.87
2022-08-03T10:50:09.087Z,29.90
2022-08-03T10:53:06.553Z,29.94
2022-08-03T10:55:55.372Z,30.00
2022-08-03T10:58:37.086Z,30.00
2022-08-03T11:01:06.074Z,29.97
2022-08-03T11:03:36.174Z,30.00
2022-08-03T11:06:19.775Z,30.01
2022-08-03T11:08:50.437Z,30.05
2022-08-03T11:11:17.000Z,30.16
2022-08-03T11:14:16.816Z,30.28
2022-08-03T11:16:50.035Z,30.30
2022-08-03T11:19:22.994Z,30.27
2022-08-03T11:21:55.951Z,30.21
2022-08-03T11:24:40.877Z,30.23
2022-08-03T11:27:14.091Z,30.28
2022-08-03T11:29:59.652Z,30.34
2022-08-03T11:32:46.754Z,30.44
2022-08-03T11:35:25.920Z,30.44
2022-08-03T11:38:04.995Z,30.40
2022-08-03T11:40:48.931Z,30.34
2022-08-03T11:43:21.917Z,30.41
2022-08-03T11:46:33.808Z,30.48
2022-08-03T11:49:10.455Z,30.52
2022-08-03T11:51:39.750Z,30.55
2022-08-03T11:54:36.410Z,30.58
2022-08-03T11:57:09.191Z,30.50
2022-08-03T12:00:10.076Z,30.50
2022-08-03T12:03:18.489Z,30.52
2022-08-03T12:06:31.036Z,30.53
2022-08-03T12:09:21.232Z,30.62
2022-08-03T12:16:15.282Z,30.72
2022-08-03T12:18:42.408Z,30.73
2022-08-03T12:21:18.254Z,30.73
2022-08-03T12:23:45.286Z,30.75
2022-08-03T12:26:15.109Z,30.82
2022-08-03T12:28:55.355Z,30.88
2022-08-03T12:31:35.266Z,30.89
2022-08-03T12:34:22.555Z,30.92
2022-08-03T12:37:45.017Z,30.92
2022-08-03T12:40:36.820Z,30.90
2022-08-03T12:43:12.497Z,30.84
2022-08-03T12:46:53.681Z,30.75
2022-08-03T12:56:49.695Z,30.86
2022-08-03T12:57:11.245Z,31.01
2022-08-03T13:00:21.291Z,31.11
2022-08-03T13:03:39.219Z,31.15
2022-08-03T13:06:13.741Z,31.19
2022-08-03T13:08:41.630Z,31.23
2022-08-03T13:11:58.078Z,31.25
2022-08-03T13:15:01.117Z,31.24
2022-08-03T13:17:31.154Z,31.24
2022-08-03T13:20:00.926Z,31.11
2022-08-03T13:22:37.037Z,30.96
2022-08-03T13:25:04.671Z,30.95
2022-08-03T13:28:04.864Z,31.05
2022-08-03T13:30:30.204Z,31.19
2022-08-03T13:33:10.348Z,31.30
2022-08-03T13:35:40.146Z,31.33
2022-08-03T13:38:18.276Z,31.33
2022-08-03T13:41:34.862Z,31.35
2022-08-03T13:44:26.733Z,31.30
2022-08-03T13:47:01.332Z,31.26
2022-08-03T13:49:32.818Z,31.25
2022-08-03T13:52:05.239Z,31.27
2022-08-03T13:54:46.272Z,31.26
2022-08-03T13:58:05.753Z,31.19
2022-08-03T14:00:07.411Z,31.25
2022-08-03T14:02:45.514Z,31.34
2022-08-03T14:05:17.954Z,31.38
2022-08-03T14:07:51.204Z,31.37
2022-08-03T14:10:40.890Z,31.33
2022-08-03T14:13:09.884Z,31.32
2022-08-03T14:15:37.514Z,31.25
2022-08-03T14:18:27.524Z,31.27
2022-08-03T14:21:04.952Z,31.29
2022-08-03T14:23:51.840Z,31.21
2022-08-03T14:26:23.767Z,31.00
2022-08-03T14:28:50.797Z,30.82
2022-08-03T14:32:10.975Z,30.89
2022-08-03T14:34:42.975Z,31.03
2022-08-03T14:37:13.511Z,31.07
2022-08-03T14:40:01.689Z,31.04
2022-08-03T14:42:28.888Z,30.99
2022-08-03T14:45:07.230Z,30.99
2022-08-03T14:49:02.745Z,31.03
2022-08-03T14:51:03.988Z,31.07
2022-08-03T14:53:46.174Z,31.10
2022-08-03T14:56:16.695Z,31.01
2022-08-03T14:58:46.062Z,30.94
2022-08-03T15:02:02.768Z,30.90
2022-08-03T15:04:39.476Z,30.89
2022-08-03T15:07:17.694Z,30.86
2022-08-03T15:09:50.297Z,30.80
2022-08-03T15:12:42.224Z,30.76
2022-08-03T15:15:35.780Z,30.69
2022-08-03T15:18:44.841Z,30.64
2022-08-03T15:21:16.669Z,30.59
2022-08-03T15:24:06.135Z,30.56
2022-08-03T15:26:46.810Z,30.54
2022-08-03T15:30:06.028Z,30.55
2022-08-03T15:32:22.604Z,30.55
2022-08-03T15:35:00.972Z,30.58
2022-08-03T15:37:48.414Z,30.61
2022-08-03T15:40:22.992Z,30.62
2022-08-03T15:43:18.783Z,30.64
2022-08-03T15:45:47.086Z,30.67
2022-08-03T15:48:39.894Z,30.71
2022-08-03T15:51:16.550Z,30.72
2022-08-03T15:54:01.886Z,30.71
2022-08-03T15:56:36.269Z,30.75
2022-08-03T15:59:12.483Z,30.80
2022-08-03T16:01:50.421Z,30.81
2022-08-03T16:04:20.371Z,30.84
2022-08-03T16:06:50.057Z,30.75
2022-08-03T16:09:24.138Z,30.64
2022-08-03T16:12:16.264Z,30.62
2022-08-03T16:14:53.775Z,30.71
2022-08-03T16:17:24.718Z,30.82
2022-08-03T16:19:56.075Z,30.90
2022-08-03T16:22:47.843Z,30.97
2022-08-03T16:25:27.041Z,30.99
2022-08-03T16:28:03.262Z,31.01
2022-08-03T16:30:46.867Z,30.98
2022-08-03T16:33:32.254Z,31.00
2022-08-03T16:36:13.759Z,31.03
2022-08-03T16:38:49.482Z,31.07
2022-08-03T16:41:54.525Z,31.04
2022-08-03T16:44:56.969Z,31.03
2022-08-03T16:47:37.382Z,31.00
2022-08-03T16:50:19.998Z,30.97
2022-08-03T16:53:16.450Z,30.88
2022-08-03T16:56:10.914Z,30.73
2022-08-03T16:59:36.072Z,30.61
2022-08-03T17:01:48.612Z,30.46
2022-08-03T17:04:20.239Z,30.30
2022-08-03T17:06:51.885Z,30.16
2022-08-03T17:09:38.937Z,30.04
2022-08-03T17:12:50.967Z,29.93
2022-08-03T17:15:20.714Z,29.80
2022-08-03T17:18:23.982Z,29.69
2022-08-03T17:21:35.419Z,29.57
2022-08-03T17:24:43.196Z,29.45
2022-08-03T17:30:41.262Z,29.37
2022-08-03T17:30:51.754Z,29.23
2022-08-03T17:33:35.579Z,29.11
2022-08-03T17:37:04.220Z,28.99
2022-08-03T17:40:08.758Z,28.86
2022-08-03T17:42:45.495Z,28.74
2022-08-03T17:46:03.157Z,28.63
2022-08-03T17:48:43.078Z,28.46
2022-08-03T17:51:35.498Z,28.33
2022-08-03T17:54:37.856Z,28.19
2022-08-03T17:58:01.453Z,28.02
2022-08-03T18:00:56.004Z,27.86
2022-08-03T18:03:59.110Z,27.71
2022-08-03T18:06:31.154Z,27.58
2022-08-03T18:09:05.209Z,27.47
2022-08-03T18:11:58.336Z,27.36
2022-08-03T18:14:37.900Z,27.25
2022-08-03T18:17:10.254Z,27.14
2022-08-03T18:20:03.304Z,27.02
2022-08-03T18:22:30.520Z,26.88
2022-08-03T18:25:07.877Z,26.76
2022-08-03T18:27:45.648Z,26.63
2022-08-03T18:30:16.908Z,26.50
2022-08-03T18:35:54.117Z,26.26
2022-08-03T18:38:21.732Z,26.16
2022-08-03T18:40:53.376Z,26.08
2022-08-03T18:43:46.438Z,26.00
2022-08-03T18:46:41.015Z,25.91
2022-08-03T18:49:20.377Z,25.82
2022-08-03T18:51:57.774Z,25.74
2022-08-03T18:54:45.861Z,25.67
2022-08-03T18:57:34.834Z,25.57
2022-08-03T19:00:16.839Z,25.49
2022-08-03T19:02:52.121Z,25.42
2022-08-03T19:05:24.252Z,25.34
2022-08-03T19:08:34.217Z,25.26
2022-08-03T19:11:07.801Z,25.16
2022-08-03T19:13:51.990Z,25.07
2022-08-03T19:16:39.411Z,25.00
2022-08-03T19:19:14.478Z,24.91
2022-08-03T19:21:43.797Z,24.84
2022-08-03T19:24:13.299Z,24.77
2022-08-03T19:26:40.866Z,24.69
2022-08-03T19:29:15.210Z,24.62
2022-08-03T19:31:54.440Z,24.53
2022-08-03T19:34:30.239Z,24.45
2022-08-03T19:37:00.234Z,24.38
2022-08-03T19:39:27.134Z,24.32
2022-08-03T19:42:08.234Z,24.24
2022-08-03T19:44:47.825Z,24.16
2022-08-03T19:47:30.875Z,24.09
2022-08-03T19:50:05.885Z,24.02
2022-08-03T19:52:39.509Z,23.96
2022-08-03T19:55:12.680Z,23.90
2022-08-03T19:57:49.382Z,23.84
2022-08-03T20:00:19.071Z,23.77
2022-08-03T20:02:50.762Z,23.71
2022-08-03T20:05:17.922Z,23.66
2022-08-03T20:07:48.258Z,23.60
2022-08-03T20:10:19.844Z,23.54
2022-08-03T20:12:49.286Z,23.49
2022-08-03T20:15:22.156Z,23.43
2022-08-03T20:18:06.372Z,23.36
2022-08-03T20:20:47.814Z,23.31
2022-08-03T20:23:19.275Z,23.25
2022-08-03T20:25:58.490Z,23.22
2022-08-03T20:28:34.540Z,23.19
2022-08-03T20:31:01.878Z,23.15
2022-08-03T20:33:46.724Z,23.10
2022-08-03T20:36:18.009Z,23.06
2022-08-03T20:38:52.013Z,23.03
2022-08-03T20:41:21.557Z,22.99
2022-08-03T20:43:51.485Z,22.94
2022-08-03T20:46:46.505Z,22.87
2022-08-03T20:49:22.929Z,22.81
2022-08-03T20:51:53.132Z,22.75
2022-08-03T20:54:29.486Z,22.68
2022-08-03T20:57:03.847Z,22.60
2022-08-03T20:59:47.162Z,22.53
2022-08-03T21:02:29.015Z,22.44
2022-08-03T21:04:59.145Z,22.37
2022-08-03T21:08:03.702Z,22.28
2022-08-03T21:10:28.465Z,22.19
2022-08-03T21:13:04.111Z,26.40
2022-08-03T21:13:17.468Z,22.13
2022-08-03T21:16:06.756Z,22.04
2022-08-03T21:18:38.892Z,21.96
2022-08-03T21:21:06.720Z,21.90
2022-08-03T21:23:47.567Z,21.86
2022-08-03T21:26:19.534Z,21.83
2022-08-03T21:28:48.629Z,21.81
2022-08-03T21:31:25.080Z,21.79
2022-08-03T21:34:04.265Z,21.74
2022-08-03T21:36:36.356Z,21.68
2022-08-03T21:39:07.492Z,21.64
2022-08-03T21:41:39.382Z,21.59
2022-08-03T21:44:07.398Z,21.56
2022-08-03T21:46:39.961Z,21.53
2022-08-03T21:50:07.750Z,21.47
2022-08-03T21:52:06.725Z,21.39
2022-08-03T21:54:37.172Z,21.33
2022-08-03T21:57:13.195Z,21.29
2022-08-03T22:00:01.989Z,21.27
2022-08-03T22:02:32.125Z,21.24
2022-08-03T22:05:05.162Z,21.20
2022-08-03T22:08:00.908Z,21.21
2022-08-03T22:10:28.330Z,21.22
2022-08-03T22:12:57.845Z,21.19
2022-08-03T22:15:34.339Z,21.14
2022-08-03T22:18:26.197Z,21.09
2022-08-03T22:21:36.146Z,21.06
2022-08-03T22:24:19.468Z,21.08
2022-08-03T22:31:30.524Z,21.04
2022-08-03T22:34:14.170Z,21.01
2022-08-03T22:36:41.887Z,21.00
2022-08-03T22:39:26.168Z,20.98
2022-08-03T22:42:25.377Z,20.97
2022-08-03T22:45:06.549Z,20.89
2022-08-03T22:47:50.777Z,20.77
2022-08-03T22:50:49.012Z,20.71
2022-08-03T22:54:08.424Z,20.66
2022-08-03T22:56:38.480Z,20.63
2022-08-03T22:59:40.807Z,20.61
2022-08-03T23:02:20.339Z,20.55
2022-08-03T23:05:59.541Z,20.49
2022-08-03T23:11:11.608Z,20.38
2022-08-03T23:15:20.287Z,20.31
2022-08-03T23:17:26.115Z,20.25
2022-08-03T23:19:59.885Z,20.23
2022-08-03T23:22:30.760Z,20.21
2022-08-03T23:25:22.876Z,20.19
2022-08-03T23:28:04.985Z,20.16
2022-08-03T23:31:21.229Z,20.13
2022-08-03T23:38:10.729Z,20.05
2022-08-03T23:43:07.745Z,20.07
2022-08-03T23:44:49.690Z,20.08
2022-08-03T23:47:16.650Z,20.12
2022-08-03T23:54:14.333Z,20.13
